createdAt,value
2019-02-15T00:01:58.754Z,84.13
2019-02-15T00:04:25.074Z,88.80
2019-02-15T00:06:51.448Z,80.97
2019-02-15T00:09:17.780Z,72.47
2019-02-15T00:11:44.135Z,83.23
2019-02-15T00:14:10.473Z,80.33
2019-02-15T00:16:36.865Z,76.03
2019-02-15T00:19:16.885Z,79.90
2019-02-15T00:21:43.273Z,75.50
2019-02-15T00:24:09.662Z,64.50
2019-02-15T00:26:36.032Z,79.03
2019-02-15T00:29:02.506Z,76.67
2019-02-15T00:31:29.872Z,81.87
2019-02-15T00:33:56.381Z,85.97
2019-02-15T00:36:22.734Z,75.53
2019-02-15T00:38:49.096Z,70.20
2019-02-15T00:41:15.512Z,66.57
2019-02-15T00:43:41.881Z,73.00
2019-02-15T00:46:15.967Z,65.77
2019-02-15T00:48:42.413Z,77.37
2019-02-15T00:51:13.856Z,71.93
2019-02-15T00:53:44.948Z,71.30
2019-02-15T00:56:30.155Z,70.73
2019-02-15T00:59:16.505Z,86.50
2019-02-15T01:01:50.580Z,70.37
2019-02-15T01:04:21.979Z,72.93
2019-02-15T01:06:59.306Z,72.93
2019-02-15T01:09:27.613Z,69.33
2019-02-15T01:11:58.416Z,70.23
2019-02-15T01:14:24.895Z,74.40
2019-02-15T01:16:51.278Z,73.57
2019-02-15T01:19:17.695Z,70.27
2019-02-15T01:21:44.184Z,72.13
2019-02-15T01:24:10.591Z,68.53
2019-02-15T01:26:47.822Z,73.77
2019-02-15T01:29:25.196Z,67.60
2019-02-15T01:31:59.619Z,62.30
2019-02-15T01:34:27.991Z,75.93
2019-02-15T01:36:56.351Z,63.63
2019-02-15T01:39:24.686Z,65.93
2019-02-15T01:41:55.510Z,71.23
2019-02-15T01:44:23.760Z,73.87
2019-02-15T01:46:52.063Z,63.77
2019-02-15T01:49:18.454Z,73.90
2019-02-15T01:51:44.870Z,74.13
2019-02-15T01:54:11.303Z,78.87
2019-02-15T01:56:37.658Z,70.60
2019-02-15T01:59:04.088Z,70.97
2019-02-15T02:01:30.424Z,80.03
2019-02-15T02:03:57.883Z,70.77
2019-02-15T02:06:27.406Z,75.27
2019-02-15T02:08:53.877Z,73.40
2019-02-15T02:11:20.229Z,70.07
2019-02-15T02:13:49.659Z,75.23
2019-02-15T02:16:14.814Z,74.43
2019-02-15T02:18:41.232Z,75.60
2019-02-15T02:21:07.677Z,82.77
2019-02-15T02:23:34.179Z,76.10
2019-02-15T02:26:00.569Z,86.83
2019-02-15T02:28:26.897Z,87.60
2019-02-15T02:30:53.280Z,87.80
2019-02-15T02:33:19.661Z,75.93
2019-02-15T02:35:46.134Z,72.93
2019-02-15T02:38:13.805Z,77.57
2019-02-15T02:40:40.214Z,94.80
2019-02-15T02:43:06.569Z,107.03
2019-02-15T02:45:32.982Z,97.73
2019-02-15T02:47:59.844Z,96.83
2019-02-15T02:50:26.243Z,94.80
2019-02-15T02:52:52.685Z,95.93
2019-02-15T02:55:19.062Z,91.17
2019-02-15T02:57:45.552Z,105.30
2019-02-15T03:00:11.900Z,107.53
2019-02-15T03:02:38.494Z,99.60
2019-02-15T03:05:05.853Z,98.50
2019-02-15T03:07:32.316Z,99.40
2019-02-15T03:09:58.669Z,91.70
2019-02-15T03:12:25.077Z,94.10
2019-02-15T03:14:51.392Z,83.03
2019-02-15T03:17:17.766Z,98.77
2019-02-15T03:19:44.133Z,101.30
2019-02-15T03:22:10.468Z,113.20
2019-02-15T03:24:36.869Z,98.03
2019-02-15T03:27:03.223Z,101.50
2019-02-15T03:29:29.590Z,91.27
2019-02-15T03:31:56.942Z,103.50
2019-02-15T03:34:23.343Z,87.80
2019-02-15T03:36:51.593Z,87.80
2019-02-15T03:39:19.856Z,87.63
2019-02-15T03:41:46.203Z,89.47
2019-02-15T03:44:21.811Z,78.20
2019-02-15T03:46:40.745Z,86.07
2019-02-15T03:49:07.225Z,94.87
2019-02-15T03:51:33.629Z,88.40
2019-02-15T03:53:59.977Z,92.77
2019-02-15T03:56:26.332Z,86.87
2019-02-15T03:58:52.820Z,80.97
2019-02-15T04:01:19.580Z,84.53
2019-02-15T04:03:46.032Z,88.83
2019-02-15T04:06:12.421Z,94.37
2019-02-15T04:08:38.775Z,89.47
2019-02-15T04:11:05.104Z,83.53
2019-02-15T04:13:31.489Z,95.30
2019-02-15T04:15:57.883Z,88.13
2019-02-15T04:18:24.540Z,84.27
2019-02-15T04:20:51.364Z,91.70
2019-02-15T04:23:17.780Z,93.33
2019-02-15T04:25:44.159Z,97.33
2019-02-15T04:28:10.571Z,89.63
2019-02-15T04:30:36.999Z,77.17
2019-02-15T04:33:03.324Z,92.17
2019-02-15T04:35:29.694Z,90.23
2019-02-15T04:37:56.086Z,84.40
2019-02-15T04:40:22.497Z,96.70
2019-02-15T04:42:48.848Z,112.63
2019-02-15T04:45:15.265Z,92.30
2019-02-15T04:47:41.612Z,105.67
2019-02-15T04:50:08.164Z,93.77
2019-02-15T04:52:34.553Z,106.50
2019-02-15T04:55:00.889Z,102.10
2019-02-15T04:57:27.279Z,124.77
2019-02-15T04:59:53.639Z,118.90
2019-02-15T05:02:20.036Z,140.67
2019-02-15T05:04:46.413Z,138.20
2019-02-15T05:07:12.893Z,148.03
2019-02-15T05:09:39.218Z,138.70
2019-02-15T05:12:05.589Z,122.33
2019-02-15T05:14:31.917Z,114.93
2019-02-15T05:16:58.371Z,124.80
2019-02-15T05:19:24.737Z,110.70
2019-02-15T05:21:51.092Z,110.43
2019-02-15T05:24:17.536Z,136.50
2019-02-15T05:26:43.902Z,121.93
2019-02-15T05:29:10.326Z,106.80
2019-02-15T05:31:36.672Z,115.00
2019-02-15T05:34:03.084Z,129.47
2019-02-15T05:36:29.454Z,160.77
2019-02-15T05:38:55.849Z,201.43
2019-02-15T05:41:22.188Z,182.83
2019-02-15T05:43:49.462Z,189.87
2019-02-15T05:46:15.841Z,177.00
2019-02-15T05:48:42.293Z,167.37
2019-02-15T05:51:08.933Z,146.27
2019-02-15T05:53:35.377Z,159.90
2019-02-15T05:56:01.767Z,151.33
2019-02-15T05:58:28.160Z,181.53
2019-02-15T06:00:54.532Z,185.07
2019-02-15T06:03:20.909Z,224.97
2019-02-15T06:05:47.297Z,213.87
2019-02-15T06:08:13.696Z,207.30
2019-02-15T06:10:40.016Z,241.43
2019-02-15T06:13:06.434Z,259.83
2019-02-15T06:15:32.794Z,240.43
2019-02-15T06:17:59.257Z,250.33
2019-02-15T06:20:25.566Z,258.47
2019-02-15T06:22:52.036Z,240.73
2019-02-15T06:25:19.106Z,197.70
2019-02-15T06:27:45.471Z,216.17
2019-02-15T06:30:12.764Z,202.57
2019-02-15T06:32:39.298Z,208.37
2019-02-15T06:35:05.680Z,188.30
2019-02-15T06:37:32.083Z,197.90
2019-02-15T06:39:58.482Z,210.70
2019-02-15T06:42:24.904Z,216.63
2019-02-15T06:44:51.419Z,221.27
2019-02-15T06:47:17.849Z,214.20
2019-02-15T06:49:44.784Z,201.90
2019-02-15T06:52:11.179Z,234.63
2019-02-15T06:54:37.539Z,249.73
2019-02-15T06:57:03.937Z,224.33
2019-02-15T06:59:35.214Z,229.90
2019-02-15T07:02:03.427Z,211.77
2019-02-15T07:04:34.819Z,234.20
2019-02-15T07:07:01.200Z,292.83
2019-02-15T07:09:27.569Z,293.63
2019-02-15T07:11:53.916Z,224.63
2019-02-15T07:14:20.956Z,188.90
2019-02-15T07:16:47.419Z,181.83
2019-02-15T07:19:13.805Z,193.37
2019-02-15T07:21:40.155Z,186.93
2019-02-15T07:24:06.620Z,197.80
2019-02-15T07:26:32.951Z,192.27
2019-02-15T07:28:59.391Z,218.83
2019-02-15T07:31:25.688Z,219.40
2019-02-15T07:33:52.121Z,224.97
2019-02-15T07:36:18.502Z,225.93
2019-02-15T07:38:44.921Z,200.27
2019-02-15T07:41:11.314Z,164.50
2019-02-15T07:43:37.706Z,180.40
2019-02-15T07:46:04.028Z,176.33
2019-02-15T07:48:30.392Z,176.97
2019-02-15T07:50:56.895Z,171.47
2019-02-15T07:53:23.249Z,185.87
2019-02-15T07:55:49.619Z,184.30
2019-02-15T07:58:16.095Z,175.27
2019-02-15T08:00:42.612Z,169.60
2019-02-15T08:03:09.033Z,191.40
2019-02-15T08:05:35.396Z,177.90
2019-02-15T08:08:01.820Z,174.27
2019-02-15T08:10:28.190Z,192.47
2019-02-15T08:12:54.580Z,158.73
2019-02-15T08:15:20.937Z,155.93
2019-02-15T08:17:47.351Z,150.10
2019-02-15T08:20:13.693Z,167.83
2019-02-15T08:22:40.090Z,177.33
2019-02-15T08:25:07.882Z,161.87
2019-02-15T08:27:34.268Z,155.07
2019-02-15T08:30:00.678Z,165.63
2019-02-15T08:32:27.202Z,166.20
2019-02-15T08:34:53.649Z,162.67
2019-02-15T08:37:20.872Z,157.60
2019-02-15T08:39:47.488Z,159.93
2019-02-15T08:42:13.829Z,155.43
2019-02-15T08:44:40.203Z,155.87
2019-02-15T08:47:06.596Z,141.17
2019-02-15T08:49:33.046Z,160.43
2019-02-15T08:51:59.485Z,154.00
2019-02-15T08:54:25.832Z,154.00
2019-02-15T08:56:52.273Z,156.97
2019-02-15T08:59:18.654Z,129.77
2019-02-15T09:01:47.014Z,145.60
2019-02-15T09:04:13.441Z,153.90
2019-02-15T09:06:40.796Z,149.50
2019-02-15T09:09:08.427Z,160.87
2019-02-15T09:11:34.997Z,138.20
2019-02-15T09:14:01.452Z,148.70
2019-02-15T09:16:27.841Z,149.83
2019-02-15T09:18:54.287Z,161.53
2019-02-15T09:21:20.611Z,144.40
2019-02-15T09:23:47.008Z,156.83
2019-02-15T09:26:18.136Z,160.00
2019-02-15T09:28:43.496Z,156.07
2019-02-15T09:31:09.994Z,142.93
2019-02-15T09:33:36.360Z,161.60
2019-02-15T09:36:02.796Z,164.60
2019-02-15T09:38:30.321Z,156.30
2019-02-15T09:40:57.751Z,192.40
2019-02-15T09:43:24.192Z,202.80
2019-02-15T09:45:50.583Z,192.70
2019-02-15T09:48:17.015Z,234.50
2019-02-15T09:50:43.506Z,288.70
2019-02-15T09:53:09.978Z,186.20
2019-02-15T09:55:36.344Z,183.90
2019-02-15T09:58:02.843Z,164.47
2019-02-15T10:00:29.190Z,163.80
2019-02-15T10:02:55.559Z,198.07
2019-02-15T10:05:21.915Z,172.57
2019-02-15T10:07:48.474Z,176.20
2019-02-15T10:10:14.931Z,137.63
2019-02-15T10:12:41.423Z,113.30
2019-02-15T10:15:09.531Z,122.10
2019-02-15T10:17:35.872Z,114.03
2019-02-15T10:20:06.555Z,105.70
2019-02-15T10:22:32.905Z,122.40
2019-02-15T10:24:59.317Z,137.20
2019-02-15T10:27:25.720Z,160.70
2019-02-15T10:29:53.086Z,146.43
2019-02-15T10:32:19.677Z,121.80
2019-02-15T10:34:46.098Z,154.83
2019-02-15T10:37:12.530Z,116.13
2019-02-15T10:39:38.949Z,147.17
2019-02-15T10:42:05.344Z,122.80
2019-02-15T10:44:31.725Z,138.33
2019-02-15T10:46:58.109Z,148.20
2019-02-15T10:49:24.676Z,174.40
2019-02-15T10:51:51.035Z,127.70
2019-02-15T10:54:17.453Z,130.70
2019-02-15T10:56:43.923Z,133.70
2019-02-15T10:59:11.345Z,141.70
2019-02-15T11:01:37.740Z,165.60
2019-02-15T11:04:04.106Z,178.93
2019-02-15T11:06:30.579Z,183.67
2019-02-15T11:08:57.005Z,165.87
2019-02-15T11:11:23.454Z,185.77
2019-02-15T11:13:49.861Z,163.33
2019-02-15T11:16:16.216Z,155.07
2019-02-15T11:18:42.596Z,143.07
2019-02-15T11:21:09.011Z,129.60
2019-02-15T11:23:35.453Z,145.60
2019-02-15T11:26:01.975Z,138.60
2019-02-15T11:28:28.917Z,134.20
2019-02-15T11:30:55.305Z,144.73
2019-02-15T11:33:21.672Z,151.47
2019-02-15T11:35:48.046Z,178.87
2019-02-15T11:38:14.427Z,177.87
2019-02-15T11:40:40.800Z,183.00
2019-02-15T11:43:07.303Z,155.57
2019-02-15T11:45:33.790Z,157.33
2019-02-15T11:48:00.152Z,165.30
2019-02-15T11:50:26.652Z,189.77
2019-02-15T11:52:53.038Z,180.47
2019-02-15T11:55:19.435Z,220.00
2019-02-15T11:57:45.814Z,241.73
2019-02-15T12:00:17.799Z,224.37
2019-02-15T12:02:43.922Z,176.73
2019-02-15T12:05:10.383Z,208.90
2019-02-15T12:07:36.782Z,219.47
2019-02-15T12:10:06.087Z,161.13
2019-02-15T12:12:33.493Z,182.70
2019-02-15T12:14:59.913Z,185.27
2019-02-15T12:17:26.291Z,159.30
2019-02-15T12:19:52.678Z,122.63
2019-02-15T12:22:19.038Z,176.77
2019-02-15T12:24:46.555Z,121.13
2019-02-15T12:27:13.913Z,115.13
2019-02-15T12:29:41.180Z,123.50
2019-02-15T12:32:07.652Z,137.23
2019-02-15T12:34:34.048Z,153.27
2019-02-15T12:37:00.676Z,125.40
2019-02-15T12:39:27.136Z,144.23
2019-02-15T12:41:53.454Z,170.47
2019-02-15T12:44:19.850Z,132.90
2019-02-15T12:46:46.272Z,133.27
2019-02-15T12:49:12.713Z,133.70
2019-02-15T12:51:39.159Z,147.60
2019-02-15T12:54:05.572Z,130.70
2019-02-15T12:56:32.044Z,154.57
2019-02-15T12:58:58.381Z,178.50
2019-02-15T13:01:24.830Z,178.43
2019-02-15T13:03:51.168Z,122.00
2019-02-15T13:06:17.571Z,104.23
2019-02-15T13:08:44.028Z,100.53
2019-02-15T13:11:10.423Z,137.27
2019-02-15T13:13:36.845Z,132.07
2019-02-15T13:16:03.241Z,112.23
2019-02-15T13:18:29.629Z,108.03
2019-02-15T13:20:56.006Z,119.30
2019-02-15T13:23:22.439Z,115.90
2019-02-15T13:25:48.785Z,104.53
2019-02-15T13:28:15.187Z,132.63
2019-02-15T13:30:41.586Z,122.90
2019-02-15T13:33:07.971Z,115.80
2019-02-15T13:35:34.354Z,125.57
2019-02-15T13:38:01.725Z,108.80
2019-02-15T13:40:28.152Z,99.30
2019-02-15T13:42:54.534Z,101.23
2019-02-15T13:45:20.915Z,94.27
2019-02-15T13:47:47.334Z,110.63
2019-02-15T13:50:14.926Z,101.07
2019-02-15T13:52:41.303Z,103.17
2019-02-15T13:55:08.988Z,100.27
2019-02-15T13:57:36.466Z,100.90
2019-02-15T14:00:06.003Z,97.17
2019-02-15T14:02:32.559Z,101.37
2019-02-15T14:04:58.974Z,115.00
2019-02-15T14:07:25.418Z,101.53
2019-02-15T14:09:51.887Z,104.90
2019-02-15T14:12:18.302Z,102.87
2019-02-15T14:14:44.791Z,97.97
2019-02-15T14:17:11.156Z,109.90
2019-02-15T14:19:37.607Z,131.10
2019-02-15T14:22:03.927Z,106.23
2019-02-15T14:24:30.415Z,128.67
2019-02-15T14:26:57.855Z,107.27
2019-02-15T14:29:24.278Z,110.13
2019-02-15T14:31:50.632Z,134.10
2019-02-15T14:34:17.039Z,177.47
2019-02-15T14:36:43.511Z,142.03
2019-02-15T14:39:11.206Z,105.10
2019-02-15T14:41:37.617Z,95.47
2019-02-15T14:44:05.098Z,85.30
2019-02-15T14:46:31.608Z,105.47
2019-02-15T14:48:58.689Z,113.20
2019-02-15T14:51:25.037Z,109.80
2019-02-15T14:53:51.403Z,106.70
2019-02-15T14:56:17.792Z,97.60
2019-02-15T14:58:44.197Z,100.03
2019-02-15T15:01:10.549Z,99.07
2019-02-15T15:03:36.992Z,89.07
2019-02-15T15:06:03.357Z,94.77
2019-02-15T15:08:30.790Z,93.90
2019-02-15T15:10:57.270Z,114.33
2019-02-15T15:13:23.741Z,108.30
2019-02-15T15:15:50.269Z,127.40
2019-02-15T15:18:16.627Z,125.47
2019-02-15T15:20:43.062Z,148.53
2019-02-15T15:23:09.394Z,143.73
2019-02-15T15:25:35.778Z,180.40
2019-02-15T15:28:02.152Z,129.13
2019-02-15T15:30:28.657Z,105.77
2019-02-15T15:32:55.027Z,90.70
2019-02-15T15:35:21.384Z,78.33
2019-02-15T15:37:47.729Z,98.03
2019-02-15T15:40:15.802Z,99.63
2019-02-15T15:42:42.208Z,100.27
2019-02-15T15:45:10.264Z,90.63
2019-02-15T15:47:36.696Z,95.53
2019-02-15T15:50:04.178Z,92.90
2019-02-15T15:52:30.590Z,100.10
2019-02-15T15:54:57.021Z,93.33
2019-02-15T15:57:23.392Z,88.27
2019-02-15T15:59:49.779Z,84.93
2019-02-15T16:02:18.392Z,91.70
2019-02-15T16:04:44.311Z,90.53
2019-02-15T16:07:10.677Z,94.13
2019-02-15T16:09:38.161Z,130.33
2019-02-15T16:12:04.625Z,145.33
2019-02-15T16:14:30.986Z,181.77
2019-02-15T16:16:57.375Z,219.77
2019-02-15T16:19:23.745Z,232.47
2019-02-15T16:21:50.109Z,192.87
2019-02-15T16:24:16.515Z,184.10
2019-02-15T16:26:42.924Z,126.57
2019-02-15T16:29:09.305Z,103.37
2019-02-15T16:31:35.716Z,125.00
2019-02-15T16:34:02.108Z,106.70
2019-02-15T16:36:28.453Z,101.07
2019-02-15T16:38:54.913Z,134.23
2019-02-15T16:41:24.061Z,147.50
2019-02-15T16:43:50.465Z,109.07
2019-02-15T16:46:17.701Z,95.77
2019-02-15T16:48:44.154Z,105.47
2019-02-15T16:51:10.504Z,96.30
2019-02-15T16:53:36.968Z,112.30
2019-02-15T16:56:03.447Z,106.07
2019-02-15T16:58:29.832Z,108.93
2019-02-15T17:00:56.222Z,101.37
2019-02-15T17:03:22.673Z,85.93
2019-02-15T17:05:49.027Z,89.80
2019-02-15T17:08:15.458Z,115.53
2019-02-15T17:10:41.853Z,104.37
2019-02-15T17:13:08.231Z,121.87
2019-02-15T17:15:34.665Z,104.00
2019-02-15T17:18:01.043Z,100.33
2019-02-15T17:20:27.435Z,98.50
2019-02-15T17:22:53.921Z,107.17
2019-02-15T17:25:20.298Z,109.00
2019-02-15T17:27:46.721Z,136.60
2019-02-15T17:30:13.088Z,153.80
2019-02-15T17:32:39.609Z,120.87
2019-02-15T17:35:08.099Z,127.63
2019-02-15T17:37:35.536Z,131.50
2019-02-15T17:40:04.377Z,116.93
2019-02-15T17:42:31.929Z,135.43
2019-02-15T17:44:58.378Z,142.47
2019-02-15T17:47:24.875Z,178.53
2019-02-15T17:49:51.246Z,151.30
2019-02-15T17:52:17.637Z,152.57
2019-02-15T17:54:44.005Z,207.77
2019-02-15T17:57:10.435Z,184.43
2019-02-15T17:59:36.898Z,201.40
2019-02-15T18:02:03.979Z,172.17
2019-02-15T18:04:30.373Z,193.47
2019-02-15T18:06:56.765Z,128.00
2019-02-15T18:09:23.099Z,150.70
2019-02-15T18:11:49.479Z,172.03
2019-02-15T18:14:15.879Z,127.37
2019-02-15T18:16:42.248Z,130.37
2019-02-15T18:19:10.338Z,141.37
2019-02-15T18:21:37.050Z,161.70
2019-02-15T18:24:03.534Z,192.43
2019-02-15T18:26:29.983Z,191.03
2019-02-15T18:28:56.390Z,195.50
2019-02-15T18:31:23.614Z,172.07
2019-02-15T18:33:51.129Z,168.50
2019-02-15T18:36:18.705Z,148.93
2019-02-15T18:38:45.216Z,132.03
2019-02-15T18:41:13.752Z,158.30
2019-02-15T18:43:41.117Z,188.27
2019-02-15T18:46:07.907Z,132.63
2019-02-15T18:48:35.209Z,159.63
2019-02-15T18:51:02.678Z,163.70
2019-02-15T18:53:29.113Z,161.93
2019-02-15T18:55:55.549Z,153.90
2019-02-15T18:58:21.908Z,176.13
2019-02-15T19:00:48.352Z,174.07
2019-02-15T19:03:15.354Z,127.40
2019-02-15T19:05:41.927Z,111.63
2019-02-15T19:08:08.752Z,80.93
2019-02-15T19:10:35.203Z,97.37
2019-02-15T19:13:01.635Z,111.57
2019-02-15T19:15:28.120Z,107.73
2019-02-15T19:17:54.539Z,109.60
2019-02-15T19:20:21.409Z,135.80
2019-02-15T19:22:49.020Z,130.83
2019-02-15T19:25:18.316Z,135.07
2019-02-15T19:27:45.446Z,170.80
2019-02-15T19:30:20.669Z,210.77
2019-02-15T19:32:48.246Z,115.57
2019-02-15T19:35:16.219Z,105.60
2019-02-15T19:37:42.644Z,98.87
2019-02-15T19:40:11.696Z,89.33
2019-02-15T19:42:39.298Z,100.90
2019-02-15T19:45:09.202Z,132.80
2019-02-15T19:47:35.968Z,158.47
2019-02-15T19:50:05.122Z,185.57
2019-02-15T19:52:32.855Z,188.53
2019-02-15T19:55:00.039Z,131.43
2019-02-15T19:57:26.759Z,121.47
2019-02-15T19:59:54.239Z,126.80
2019-02-15T20:02:21.725Z,137.60
2019-02-15T20:04:48.505Z,133.70
2019-02-15T20:07:14.872Z,159.50
2019-02-15T20:09:44.364Z,227.93
2019-02-15T20:12:11.733Z,148.80
2019-02-15T20:14:38.244Z,130.70
2019-02-15T20:17:05.643Z,130.67
2019-02-15T20:19:32.676Z,176.60
2019-02-15T20:21:59.406Z,189.43
2019-02-15T20:24:25.814Z,132.00
2019-02-15T20:26:52.229Z,159.27
2019-02-15T20:29:18.642Z,134.53
2019-02-15T20:31:45.175Z,168.53
2019-02-15T20:34:12.422Z,152.63
2019-02-15T20:36:38.908Z,159.30
2019-02-15T20:39:06.448Z,156.40
2019-02-15T20:41:34.701Z,146.27
2019-02-15T20:44:01.046Z,174.67
2019-02-15T20:46:28.197Z,130.13
2019-02-15T20:49:04.365Z,137.00
2019-02-15T20:51:24.681Z,139.33
2019-02-15T20:53:51.135Z,158.00
2019-02-15T20:56:17.534Z,149.77
2019-02-15T20:58:43.941Z,183.27
2019-02-15T21:01:10.348Z,150.50
2019-02-15T21:03:38.692Z,148.13
2019-02-15T21:06:05.151Z,132.40
2019-02-15T21:08:31.734Z,152.53
2019-02-15T21:10:58.185Z,153.47
2019-02-15T21:13:24.633Z,165.10
2019-02-15T21:15:51.210Z,156.10
2019-02-15T21:18:17.674Z,113.00
2019-02-15T21:20:44.027Z,80.07
2019-02-15T21:23:10.464Z,80.37
2019-02-15T21:25:37.250Z,84.90
2019-02-15T21:28:03.731Z,81.97
2019-02-15T21:30:30.588Z,83.90
2019-02-15T21:32:57.562Z,143.90
2019-02-15T21:35:24.195Z,122.47
2019-02-15T21:37:50.628Z,72.87
2019-02-15T21:40:17.666Z,80.50
2019-02-15T21:42:44.561Z,84.60
2019-02-15T21:45:11.259Z,127.17
2019-02-15T21:47:38.113Z,116.20
2019-02-15T21:50:16.385Z,115.53
2019-02-15T21:52:43.765Z,144.60
2019-02-15T21:55:07.447Z,191.67
2019-02-15T21:57:33.875Z,187.33
2019-02-15T22:00:00.374Z,200.37
2019-02-15T22:02:26.912Z,142.90
2019-02-15T22:04:53.836Z,143.27
2019-02-15T22:07:20.256Z,187.83
2019-02-15T22:09:46.687Z,188.23
2019-02-15T22:12:13.875Z,125.37
2019-02-15T22:14:42.294Z,142.23
2019-02-15T22:17:08.643Z,153.93
2019-02-15T22:19:35.074Z,136.53
2019-02-15T22:22:01.477Z,119.30
2019-02-15T22:24:27.859Z,112.43
2019-02-15T22:26:54.262Z,113.57
2019-02-15T22:29:20.711Z,85.27
2019-02-15T22:31:47.106Z,105.43
2019-02-15T22:34:13.633Z,84.30
2019-02-15T22:36:40.107Z,101.33
2019-02-15T22:39:06.538Z,96.10
2019-02-15T22:41:33.456Z,105.07
2019-02-15T22:43:59.908Z,88.90
2019-02-15T22:46:26.424Z,97.77
2019-02-15T22:48:52.821Z,127.53
2019-02-15T22:51:19.413Z,123.53
2019-02-15T22:53:46.940Z,93.10
2019-02-15T22:56:13.362Z,90.90
2019-02-15T22:58:39.809Z,103.13
2019-02-15T23:05:10.130Z,88.77
2019-02-15T23:07:36.660Z,74.37
2019-02-15T23:10:06.110Z,78.60
2019-02-15T23:12:33.363Z,77.43
2019-02-15T23:14:59.829Z,74.93
2019-02-15T23:17:27.390Z,76.73
2019-02-15T23:19:53.737Z,73.90
2019-02-15T23:22:20.152Z,78.50
2019-02-15T23:24:46.496Z,70.83
2019-02-15T23:27:12.896Z,82.00
2019-02-15T23:29:39.321Z,88.93
2019-02-15T23:32:05.710Z,73.90
2019-02-15T23:34:33.287Z,77.93
2019-02-15T23:36:59.707Z,87.00
2019-02-15T23:39:26.176Z,118.63
2019-02-15T23:41:52.550Z,105.27
2019-02-15T23:44:18.983Z,76.03
2019-02-15T23:46:46.369Z,85.37
2019-02-15T23:49:12.790Z,82.93
2019-02-15T23:51:39.128Z,74.77
2019-02-15T23:54:05.522Z,87.40
2019-02-15T23:56:32.988Z,86.73
2019-02-15T23:58:59.350Z,76.50
